Time;durP1;ratioP1;P1;durP2;ratioP2;P2;SDS_P1;SDS_P2;PMS_P1;PMS_P2;Temp;Humidity;BMP_temperature;BMP_pressure;BME280_temperature;BME280_humidity;BME280_pressure;Samples;Min_cycle;Max_cycle;Signal;HPM_P1;HPM_P2
2022/06/22 00:00:28;;;;;;;25.88;16.95;;;13.60;99.90;;;;;;5065418;28;20778;-67
2022/06/22 00:02:56;;;;;;;26.77;16.50;;;13.60;99.90;;;;;;5062075;28;20045;-67
2022/06/22 00:05:29;;;;;;;28.52;17.27;;;13.60;99.90;;;;;;5064332;28;20463;-67
2022/06/22 00:07:58;;;;;;;27.10;17.67;;;13.50;99.90;;;;;;5069417;28;20048;-67
2022/06/22 00:10:51;;;;;;;23.92;17.20;;;13.40;99.90;;;;;;5070653;28;20407;-67
2022/06/22 00:13:23;;;;;;;29.98;16.55;;;13.30;99.90;;;;;;5061405;28;20045;-67
2022/06/22 00:15:50;;;;;;;24.13;17.08;;;13.20;99.90;;;;;;5067902;28;20047;-67
2022/06/22 00:18:39;;;;;;;29.70;17.13;;;13.10;99.90;;;;;;5063881;28;20051;-67
2022/06/22 00:21:30;;;;;;;26.52;18.20;;;13.10;99.90;;;;;;5070542;28;20040;-67
2022/06/22 00:24:02;;;;;;;21.85;16.05;;;13.00;99.90;;;;;;5069845;28;20135;-67
2022/06/22 00:26:32;;;;;;;24.50;18.65;;;13.00;99.90;;;;;;5069890;28;20089;-67
2022/06/22 00:29:04;;;;;;;33.90;20.17;;;13.00;99.90;;;;;;5069258;28;20040;-67
2022/06/22 00:31:48;;;;;;;24.95;17.17;;;12.90;99.90;;;;;;5062515;28;20063;-67
2022/06/22 00:34:21;;;;;;;26.90;16.23;;;12.90;99.90;;;;;;5056628;28;20422;-67
2022/06/22 00:36:58;;;;;;;23.67;17.73;;;12.80;99.90;;;;;;5057389;28;20485;-67
2022/06/22 00:39:28;;;;;;;23.58;18.02;;;12.80;99.90;;;;;;5068822;28;20106;-67
2022/06/22 00:42:21;;;;;;;27.33;18.17;;;12.70;99.90;;;;;;5076472;28;20094;-67
2022/06/22 00:45:04;;;;;;;25.13;20.02;;;12.70;99.90;;;;;;5076596;28;20127;-67
2022/06/22 00:47:59;;;;;;;19.05;12.48;;;12.70;99.90;;;;;;5073508;28;20043;-67
2022/06/22 00:50:46;;;;;;;21.05;14.05;;;12.60;99.90;;;;;;5062116;28;20102;-67
2022/06/22 00:53:20;;;;;;;20.75;15.25;;;12.50;99.90;;;;;;5078278;28;20049;-67
2022/06/22 00:55:54;;;;;;;17.75;14.20;;;12.50;99.90;;;;;;5064836;28;20087;-67
2022/06/22 00:58:31;;;;;;;34.08;11.05;;;12.40;99.90;;;;;;5069811;28;20390;-67
2022/06/22 01:01:15;;;;;;;14.30;10.40;;;12.30;99.90;;;;;;5070495;28;20044;-67
2022/06/22 01:04:08;;;;;;;18.05;12.80;;;12.20;99.90;;;;;;5070527;28;20070;-67
2022/06/22 01:06:43;;;;;;;20.27;12.70;;;12.10;99.90;;;;;;5069496;28;20128;-67
2022/06/22 01:09:12;;;;;;;21.30;14.27;;;12.10;99.90;;;;;;5055868;28;20421;-67
2022/06/22 01:14:34;;;;;;;24.45;16.67;;;12.10;99.90;;;;;;5054946;28;20363;-67
2022/06/22 01:17:00;;;;;;;;;;;12.10;99.90;;;;;;5070128;28;20505;-67
2022/06/22 01:19:43;;;;;;;26.23;17.85;;;12.10;99.90;;;;;;5068210;28;20378;-67
2022/06/22 01:22:39;;;;;;;26.08;16.90;;;12.10;99.90;;;;;;5069857;28;20081;-66
2022/06/22 01:25:39;;;;;;;22.23;16.95;;;12.00;99.90;;;;;;5056078;28;20052;-66
2022/06/22 01:28:05;;;;;;;18.77;15.38;;;12.00;99.90;;;;;;5068162;28;20688;-67
2022/06/22 01:30:38;;;;;;;20.00;14.30;;;12.00;99.90;;;;;;5069589;28;20079;-67
2022/06/22 01:33:29;;;;;;;16.80;13.82;;;12.00;99.90;;;;;;5069021;28;20078;-67
2022/06/22 01:35:58;;;;;;;15.48;13.18;;;11.90;99.90;;;;;;5062430;28;20155;-67
2022/06/22 01:38:27;;;;;;;18.00;14.05;;;11.90;99.90;;;;;;5064814;28;20053;-67
2022/06/22 01:41:05;;;;;;;16.10;14.05;;;11.90;99.90;;;;;;5061842;28;20044;-67
2022/06/22 01:43:38;;;;;;;19.45;17.00;;;11.80;99.90;;;;;;5063999;28;20123;-67
2022/06/22 01:46:41;;;;;;;21.65;18.15;;;11.80;99.90;;;;;;5077557;28;20048;-67
2022/06/22 01:49:18;;;;;;;26.48;16.38;;;11.70;99.90;;;;;;5055941;28;20049;-67
2022/06/22 01:52:07;;;;;;;23.13;18.27;;;11.70;99.90;;;;;;5069262;28;20524;-67
2022/06/22 01:54:39;;;;;;;26.42;17.00;;;11.70;99.90;;;;;;5057921;28;20340;-67
2022/06/22 01:57:14;;;;;;;17.33;14.65;;;11.60;99.90;;;;;;5057599;28;20405;-67
2022/06/22 01:59:50;;;;;;;21.15;15.30;;;11.60;99.90;;;;;;5068351;28;20048;-67
2022/06/22 02:02:21;;;;;;;18.55;15.18;;;11.60;99.90;;;;;;5069150;28;20143;-67
2022/06/22 02:04:53;;;;;;;14.13;12.02;;;11.50;99.90;;;;;;5068012;28;20670;-67
2022/06/22 02:07:44;;;;;;;14.95;12.82;;;11.40;99.90;;;;;;5067996;28;20136;-67
2022/06/22 02:10:24;;;;;;;18.45;13.07;;;11.40;99.90;;;;;;5068369;28;20048;-67
2022/06/22 02:12:54;;;;;;;13.90;12.30;;;11.40;99.90;;;;;;5063095;28;20058;-67
2022/06/22 02:15:38;;;;;;;14.52;12.15;;;11.30;99.90;;;;;;5073477;28;20040;-67
2022/06/22 02:18:15;;;;;;;16.67;12.65;;;11.30;99.90;;;;;;5062855;28;20136;-67
2022/06/22 02:20:41;;;;;;;19.25;15.52;;;11.30;99.90;;;;;;5072540;28;20075;-67
2022/06/22 02:23:39;;;;;;;22.60;14.63;;;11.30;99.90;;;;;;5061422;28;20087;-67
2022/06/22 02:26:16;;;;;;;19.27;15.45;;;11.20;99.90;;;;;;5051519;28;20059;-66
2022/06/22 02:28:43;;;;;;;21.73;16.83;;;11.20;99.90;;;;;;5068752;28;20063;-67
2022/06/22 02:31:10;;;;;;;23.38;18.38;;;11.20;99.90;;;;;;5068545;28;20116;-67
2022/06/22 02:33:39;;;;;;;17.67;14.80;;;11.10;99.90;;;;;;5068482;28;20047;-67
2022/06/22 02:36:06;;;;;;;22.30;16.25;;;11.10;99.90;;;;;;5068029;28;20070;-67
2022/06/22 02:38:32;;;;;;;23.48;18.83;;;11.00;99.90;;;;;;5068251;28;20037;-67
2022/06/22 02:46:37;;;;;;;30.27;22.95;;;10.90;99.90;;;;;;5066656;28;20047;-67
2022/06/22 02:49:10;;;;;;;34.05;23.67;;;10.80;99.90;;;;;;5082090;28;20412;-67
2022/06/22 02:51:46;;;;;;;30.80;23.13;;;10.80;99.90;;;;;;5065166;28;20390;-67
2022/06/22 02:54:24;;;;;;;28.02;21.90;;;10.70;99.90;;;;;;5076736;28;20044;-67
2022/06/22 02:57:13;;;;;;;25.23;19.55;;;10.60;99.90;;;;;;5065597;28;20048;-67
2022/06/22 02:59:39;;;;;;;26.67;22.23;;;10.60;99.90;;;;;;5057045;28;20052;-67
2022/06/22 03:02:06;;;;;;;25.23;19.90;;;10.50;99.90;;;;;;5068337;28;20052;-67
2022/06/22 03:04:32;;;;;;;24.48;18.45;;;10.50;99.90;;;;;;5067816;28;20138;-68
2022/06/22 03:06:58;;;;;;;26.23;19.38;;;10.50;99.90;;;;;;5057336;28;20143;-67
2022/06/22 03:09:26;;;;;;;32.30;20.50;;;10.50;99.90;;;;;;5067511;28;20515;-67
2022/06/22 03:11:54;;;;;;;;;;;10.50;99.90;;;;;;5054047;28;20119;-67
2022/06/22 03:14:25;;;;;;;32.92;22.60;;;10.40;99.90;;;;;;5067412;28;19924;-68
2022/06/22 03:17:03;;;;;;;30.58;21.38;;;10.40;99.90;;;;;;5067394;28;20417;-68
2022/06/22 03:19:51;;;;;;;26.48;19.85;;;10.40;99.90;;;;;;5068167;28;20133;-68
2022/06/22 03:22:21;;;;;;;26.58;18.52;;;10.40;99.90;;;;;;5057717;28;20051;-67
2022/06/22 03:24:55;;;;;;;27.17;20.83;;;10.30;99.90;;;;;;5066171;28;20041;-68
2022/06/22 03:27:24;;;;;;;27.20;20.70;;;10.30;99.90;;;;;;5067511;28;20052;-68
2022/06/22 03:29:54;;;;;;;24.88;18.90;;;10.30;99.90;;;;;;5067762;28;20045;-68
2022/06/22 03:32:42;;;;;;;20.90;16.92;;;10.20;99.90;;;;;;5067003;28;20033;-68
2022/06/22 03:35:28;;;;;;;22.30;17.02;;;10.20;99.90;;;;;;5066166;28;20103;-68
2022/06/22 03:38:09;;;;;;;22.52;18.13;;;10.10;99.90;;;;;;5063244;28;20041;-68
2022/06/22 03:40:45;;;;;;;32.47;22.38;;;10.10;99.90;;;;;;5052737;28;20395;-68
2022/06/22 03:43:18;;;;;;;27.95;20.50;;;10.00;99.90;;;;;;5047280;28;20558;-69
2022/06/22 03:45:49;;;;;;;30.75;21.25;;;10.10;99.90;;;;;;5062143;28;20102;-69
2022/06/22 03:48:30;;;;;;;33.65;23.23;;;10.00;99.90;;;;;;5065299;28;20059;-69
2022/06/22 03:51:11;;;;;;;37.40;24.25;;;10.00;99.90;;;;;;5070187;28;20612;-68
2022/06/22 03:53:50;;;;;;;39.05;27.27;;;10.00;99.90;;;;;;5061934;28;20098;-68
2022/06/22 03:56:21;;;;;;;44.53;24.98;;;10.00;99.90;;;;;;5067135;28;20138;-68
2022/06/22 03:58:50;;;;;;;49.08;28.52;;;9.90;99.90;;;;;;5066556;28;20040;-68
2022/06/22 04:01:17;;;;;;;39.80;26.80;;;9.90;99.90;;;;;;5057491;28;20036;-68
2022/06/22 04:03:43;;;;;;;45.17;28.00;;;9.90;99.90;;;;;;5068873;28;20044;-68
2022/06/22 04:06:26;;;;;;;52.42;31.27;;;9.90;99.90;;;;;;5075867;28;20457;-68
2022/06/22 04:08:52;;;;;;;51.33;29.55;;;9.90;99.90;;;;;;5079246;28;20562;-68
2022/06/22 04:11:39;;;;;;;54.70;31.42;;;9.90;99.90;;;;;;5069409;28;20040;-68
2022/06/22 04:14:14;;;;;;;44.95;29.25;;;10.00;99.90;;;;;;5060834;28;20099;-68
2022/06/22 04:16:44;;;;;;;45.55;30.80;;;10.00;99.90;;;;;;5058893;28;20075;-68
2022/06/22 04:19:26;;;;;;;46.65;28.52;;;10.00;99.90;;;;;;5064475;28;20044;-68
2022/06/22 04:22:00;;;;;;;38.45;24.17;;;10.10;99.90;;;;;;5065746;28;20045;-67
2022/06/22 04:24:33;;;;;;;38.63;23.45;;;10.10;99.90;;;;;;5071356;28;20033;-68
2022/06/22 04:27:12;;;;;;;26.77;21.65;;;10.20;99.90;;;;;;5066547;28;20106;-67
2022/06/22 04:29:59;;;;;;;31.17;21.80;;;10.20;99.90;;;;;;5065033;28;20553;-67
2022/06/22 04:32:35;;;;;;;30.77;22.17;;;10.30;99.90;;;;;;5068052;28;20040;-68
2022/06/22 04:35:26;;;;;;;27.45;21.38;;;10.40;99.90;;;;;;5066249;28;20060;-67
2022/06/22 04:38:09;;;;;;;27.48;20.20;;;10.50;99.90;;;;;;5056846;28;20075;-67
2022/06/22 04:40:46;;;;;;;25.33;20.05;;;10.60;99.90;;;;;;5049249;28;20033;-68
2022/06/22 04:43:13;;;;;;;25.50;20.13;;;10.70;99.90;;;;;;5047946;28;20045;-68
2022/06/22 04:45:41;;;;;;;23.83;18.65;;;10.80;99.90;;;;;;5052262;28;20875;-68
2022/06/22 04:48:12;;;;;;;23.83;18.48;;;10.80;99.90;;;;;;5055763;28;20045;-68
2022/06/22 04:50:41;;;;;;;20.00;17.05;;;10.90;99.90;;;;;;5062810;28;20048;-68
2022/06/22 04:53:31;;;;;;;23.00;18.15;;;11.00;99.90;;;;;;5084143;28;20048;-68
2022/06/22 04:56:01;;;;;;;25.58;17.83;;;11.00;99.90;;;;;;5072912;28;20052;-69
2022/06/22 04:58:41;;;;;;;20.60;17.00;;;11.20;99.90;;;;;;5062456;28;20087;-68
2022/06/22 05:01:13;;;;;;;20.88;16.33;;;11.30;99.90;;;;;;5058094;28;20040;-68
2022/06/22 05:03:39;;;;;;;27.02;20.15;;;11.40;99.90;;;;;;5070207;28;20060;-70
2022/06/22 05:06:18;;;;;;;33.55;18.10;;;11.50;99.90;;;;;;5060587;28;20052;-70
2022/06/22 05:09:05;;;;;;;24.73;18.98;;;11.60;99.90;;;;;;5057075;28;20138;-67
2022/06/22 05:11:43;;;;;;;23.08;17.48;;;11.70;99.90;;;;;;5070594;28;20093;-68
2022/06/22 05:14:21;;;;;;;27.00;20.25;;;11.80;99.90;;;;;;5064987;28;20720;-68
2022/06/22 05:16:56;;;;;;;24.33;18.38;;;11.80;99.90;;;;;;5067867;28;20048;-68
2022/06/22 05:19:26;;;;;;;23.75;19.00;;;11.90;99.90;;;;;;5070705;28;20067;-68
2022/06/22 05:21:51;;;;;;;25.63;19.15;;;11.90;99.90;;;;;;5072605;28;20036;-68
2022/06/22 05:24:32;;;;;;;29.77;21.88;;;11.90;99.90;;;;;;5069356;28;20105;-68
2022/06/22 05:27:00;;;;;;;37.53;23.08;;;12.00;99.90;;;;;;5061178;28;20580;-68
2022/06/22 05:29:33;;;;;;;30.85;22.00;;;12.00;99.90;;;;;;5069526;28;20051;-68
2022/06/22 05:32:03;;;;;;;43.50;25.45;;;12.10;99.90;;;;;;5063860;28;20866;-68
2022/06/22 05:34:36;;;;;;;43.25;28.17;;;12.10;99.90;;;;;;5068352;28;20789;-68
2022/06/22 05:37:17;;;;;;;51.95;28.05;;;12.10;99.90;;;;;;5069901;28;20084;-68
2022/06/22 05:39:44;;;;;;;42.22;27.73;;;12.20;99.90;;;;;;5080413;28;20048;-68
2022/06/22 05:42:12;;;;;;;45.78;25.80;;;12.20;99.90;;;;;;5069174;28;20075;-68
2022/06/22 05:44:38;;;;;;;51.80;33.10;;;12.40;99.90;;;;;;5069808;28;20810;-68
2022/06/22 05:47:05;;;;;;;55.33;33.08;;;12.60;99.90;;;;;;5063115;28;20112;-68
2022/06/22 05:49:52;;;;;;;44.72;30.58;;;12.90;99.90;;;;;;5067638;28;20051;-68
2022/06/22 05:52:40;;;;;;;40.85;28.27;;;13.10;99.90;;;;;;5069266;28;20044;-68
2022/06/22 05:55:15;;;;;;;45.63;28.23;;;13.40;99.90;;;;;;5059988;28;20079;-68
2022/06/22 05:57:46;;;;;;;46.35;29.00;;;13.50;99.90;;;;;;5069253;28;20036;-68
2022/06/22 06:00:20;;;;;;;41.65;27.25;;;13.70;99.90;;;;;;5068274;28;20086;-68
2022/06/22 06:02:50;;;;;;;51.60;27.27;;;13.80;99.90;;;;;;5066568;28;20578;-68
2022/06/22 06:05:32;;;;;;;38.33;25.27;;;13.90;99.90;;;;;;5061670;28;20087;-68
2022/06/22 06:08:01;;;;;;;42.47;27.45;;;14.10;99.90;;;;;;5071812;28;20082;-68
2022/06/22 06:10:34;;;;;;;43.25;25.13;;;14.30;99.90;;;;;;5069984;28;20043;-68
2022/06/22 06:13:27;;;;;;;37.13;23.98;;;14.50;99.90;;;;;;5072257;28;20051;-68
2022/06/22 06:15:59;;;;;;;36.30;22.45;;;14.70;99.90;;;;;;5064886;28;20517;-68
2022/06/22 06:18:36;;;;;;;37.08;25.63;;;14.90;99.90;;;;;;5062607;28;20048;-68
2022/06/22 06:21:11;;;;;;;33.40;23.92;;;15.10;99.90;;;;;;5064742;28;20127;-68
2022/06/22 06:23:48;;;;;;;36.33;24.52;;;15.30;99.90;;;;;;5072389;28;20078;-70
2022/06/22 06:29:32;;;;;;;30.25;20.73;;;15.60;99.90;;;;;;5056056;28;20056;-68
2022/06/22 06:32:02;;;;;;;26.70;19.48;;;15.80;99.90;;;;;;5066007;28;20117;-71
2022/06/22 06:34:35;;;;;;;29.15;18.83;;;16.10;99.90;;;;;;5058581;28;20044;-69
2022/06/22 06:37:05;;;;;;;19.13;15.77;;;16.40;99.90;;;;;;5074462;28;20044;-69
2022/06/22 06:39:36;;;;;;;30.38;17.40;;;16.60;99.90;;;;;;5062100;28;20040;-69
2022/06/22 06:42:11;;;;;;;26.55;18.98;;;16.80;99.90;;;;;;5066258;28;20049;-69
2022/06/22 06:44:38;;;;;;;28.42;18.70;;;17.10;99.90;;;;;;5065256;28;20155;-69
2022/06/22 06:47:11;;;;;;;24.42;20.08;;;17.30;99.90;;;;;;5055878;28;20552;-69
2022/06/22 06:49:46;;;;;;;30.75;16.95;;;17.40;99.90;;;;;;5064873;28;20898;-69
2022/06/22 06:52:34;;;;;;;22.30;17.80;;;17.60;99.90;;;;;;5059236;28;20559;-68
2022/06/22 06:55:12;;;;;;;24.85;16.02;;;17.80;99.90;;;;;;5068180;28;20075;-69
2022/06/22 06:58:03;;;;;;;20.35;14.55;;;17.90;99.90;;;;;;5052635;28;20058;-68
2022/06/22 07:00:30;;;;;;;16.48;13.68;;;18.20;99.90;;;;;;5067300;28;20093;-68
2022/06/22 07:02:56;;;;;;;18.45;14.73;;;18.40;99.90;;;;;;5048584;28;20135;-69
2022/06/22 07:05:25;;;;;;;21.77;13.23;;;18.60;99.90;;;;;;5066425;28;20114;-69
2022/06/22 07:08:09;;;;;;;19.67;13.98;;;18.70;99.90;;;;;;5057059;28;20048;-69
2022/06/22 07:10:42;;;;;;;20.95;13.60;;;19.00;99.90;;;;;;5064787;28;20040;-68
2022/06/22 07:13:32;;;;;;;16.92;14.07;;;19.00;99.90;;;;;;5055133;28;20045;-68
2022/06/22 07:16:03;;;;;;;29.73;14.90;;;19.00;99.90;;;;;;5063248;28;20432;-68
2022/06/22 07:18:34;;;;;;;20.33;13.05;;;19.20;99.90;;;;;;5067453;28;20489;-68
2022/06/22 07:21:39;;;;;;;23.75;12.93;;;19.40;99.90;;;;;;5063523;28;20053;-68
2022/06/22 07:24:18;;;;;;;23.63;12.40;;;19.50;99.90;;;;;;5054802;28;20037;-68
2022/06/22 07:27:01;;;;;;;17.92;12.20;;;19.60;99.90;;;;;;5059284;28;20131;-68
2022/06/22 07:30:05;;;;;;;18.63;12.68;;;19.60;99.90;;;;;;5067324;28;20068;-68
2022/06/22 07:32:55;;;;;;;21.23;12.88;;;19.70;99.90;;;;;;5090429;28;20770;-68
2022/06/22 07:35:28;;;;;;;17.17;12.55;;;19.90;99.90;;;;;;5060953;28;20060;-68
2022/06/22 07:38:21;;;;;;;17.75;11.85;;;20.00;99.90;;;;;;5067892;28;20045;-68
2022/06/22 07:43:33;;;;;;;18.67;12.20;;;20.60;99.90;;;;;;5064750;28;20122;-66
2022/06/22 07:45:59;;;;;;;14.98;9.55;;;20.90;99.90;;;;;;5067691;28;20036;-66
2022/06/22 07:48:26;;;;;;;12.38;10.40;;;21.00;99.90;;;;;;5062188;28;20037;-68
2022/06/22 07:50:56;;;;;;;12.98;9.07;;;20.90;99.90;;;;;;5059841;28;20183;-66
2022/06/22 07:53:51;;;;;;;10.73;9.02;;;21.00;99.90;;;;;;5061642;28;20521;-66
2022/06/22 07:56:33;;;;;;;13.55;9.52;;;21.20;97.80;;;;;;5064880;28;20048;-66
2022/06/22 07:59:06;;;;;;;17.55;10.80;;;21.20;92.30;;;;;;5065827;28;20037;-66
2022/06/22 08:01:38;;;;;;;16.38;8.88;;;21.00;99.90;;;;;;5059059;28;20056;-66
2022/06/22 08:04:15;;;;;;;14.88;9.07;;;20.70;98.30;;;;;;5057413;28;20167;-66
2022/06/22 08:06:48;;;;;;;11.93;8.05;;;20.70;99.90;;;;;;5061596;28;20116;-67
2022/06/22 08:09:20;;;;;;;14.80;7.15;;;21.10;99.60;;;;;;5067187;28;20875;-67
2022/06/22 08:11:56;;;;;;;8.95;8.05;;;21.60;97.50;;;;;;5058125;28;20036;-67
2022/06/22 08:14:38;;;;;;;17.17;8.32;;;21.70;90.90;;;;;;5064674;28;20040;-67
2022/06/22 08:17:08;;;;;;;18.08;8.95;;;21.80;85.50;;;;;;5065736;28;20080;-67
2022/06/22 08:19:35;;;;;;;33.65;9.73;;;21.50;90.60;;;;;;5064714;28;20966;-67
2022/06/22 08:22:05;;;;;;;10.90;8.88;;;21.60;84.70;;;;;;5063888;28;20511;-67
2022/06/22 08:24:37;;;;;;;13.48;9.82;;;21.30;88.30;;;;;;5066515;28;20048;-67
2022/06/22 08:27:03;;;;;;;14.40;9.35;;;21.40;90.70;;;;;;5068662;28;20056;-67
2022/06/22 08:29:32;;;;;;;15.27;9.18;;;21.50;91.40;;;;;;5069482;28;20390;-68
2022/06/22 08:32:05;;;;;;;140.13;24.38;;;21.40;93.80;;;;;;5070588;28;20041;-68
2022/06/22 08:34:40;;;;;;;45.55;13.20;;;21.70;92.00;;;;;;5066842;28;20045;-67
2022/06/22 08:37:10;;;;;;;12.40;7.38;;;22.20;87.10;;;;;;5061874;28;20051;-67
2022/06/22 08:39:44;;;;;;;19.00;8.90;;;22.60;84.80;;;;;;5069530;28;20040;-67
2022/06/22 08:42:53;;;;;;;17.77;7.97;;;22.80;77.50;;;;;;5071447;28;20580;-67
2022/06/22 08:46:01;;;;;;;14.88;7.80;;;22.90;74.90;;;;;;5069094;28;20036;-67
2022/06/22 08:49:01;;;;;;;23.23;9.00;;;23.10;68.90;;;;;;5056498;28;20041;-67
2022/06/22 08:51:52;;;;;;;12.40;8.60;;;22.60;74.20;;;;;;5069476;28;20088;-67
2022/06/22 08:54:50;;;;;;;13.05;9.07;;;22.40;73.10;;;;;;5069273;28;20119;-67
2022/06/22 08:57:30;;;;;;;16.50;9.95;;;22.40;79.40;;;;;;5061782;28;20398;-67
2022/06/22 09:00:08;;;;;;;14.20;8.75;;;22.40;73.90;;;;;;5050954;28;20090;-67
2022/06/22 09:02:40;;;;;;;;;;;22.40;80.50;;;;;;5070397;28;20048;-67
2022/06/22 09:05:36;;;;;;;13.75;9.63;;;22.20;74.40;;;;;;5059847;28;19999;-68
2022/06/22 09:08:26;;;;;;;20.65;10.55;;;22.30;77.60;;;;;;5066613;28;20040;-67
2022/06/22 09:11:03;;;;;;;12.18;8.68;;;22.20;81.00;;;;;;5067113;28;20071;-67
2022/06/22 09:13:40;;;;;;;15.13;8.15;;;22.60;74.50;;;;;;5074405;28;20121;-68
2022/06/22 09:16:34;;;;;;;12.10;9.60;;;23.10;71.60;;;;;;5062657;28;20037;-67
2022/06/22 09:19:19;;;;;;;17.35;9.25;;;23.10;68.40;;;;;;5076708;28;20592;-67
2022/06/22 09:22:00;;;;;;;11.27;8.80;;;23.00;66.60;;;;;;5065997;28;20559;-67
2022/06/22 09:24:44;;;;;;;20.38;11.30;;;23.10;67.10;;;;;;5065450;28;20028;-67
2022/06/22 09:27:17;;;;;;;16.13;9.10;;;23.50;64.20;;;;;;5063351;28;20087;-67
2022/06/22 09:30:01;;;;;;;9.98;7.65;;;23.00;63.10;;;;;;5062943;28;20044;-67
2022/06/22 09:32:52;;;;;;;16.20;10.18;;;22.70;65.10;;;;;;5065884;28;20045;-67
2022/06/22 09:35:36;;;;;;;16.58;8.90;;;22.50;69.20;;;;;;5062854;28;20044;-67
2022/06/22 09:38:28;;;;;;;12.77;10.43;;;22.60;67.30;;;;;;5067299;28;20088;-67
2022/06/22 09:41:33;;;;;;;15.63;10.52;;;22.70;63.80;;;;;;5075066;28;20127;-67
2022/06/22 09:44:37;;;;;;;16.05;11.43;;;23.00;69.50;;;;;;5068504;28;20053;-67
2022/06/22 09:47:20;;;;;;;17.08;9.52;;;23.40;62.90;;;;;;5067566;28;20087;-67
2022/06/22 09:50:14;;;;;;;15.82;10.18;;;23.50;63.90;;;;;;5065479;28;20037;-67
2022/06/22 09:53:14;;;;;;;18.00;10.95;;;23.70;62.80;;;;;;5064756;28;20749;-67
2022/06/22 09:59:17;;;;;;;19.38;10.68;;;24.00;64.80;;;;;;5065576;28;20493;-67
2022/06/22 10:02:12;;;;;;;18.55;9.30;;;24.00;58.20;;;;;;5061938;28;20501;-67
2022/06/22 10:04:53;;;;;;;10.77;8.30;;;24.00;56.90;;;;;;5068448;28;20048;-67
2022/06/22 10:07:30;;;;;;;11.00;7.38;;;24.00;59.90;;;;;;5066824;28;20052;-67
2022/06/22 10:10:31;;;;;;;10.02;7.15;;;23.90;58.40;;;;;;5072008;28;20406;-67
2022/06/22 10:13:14;;;;;;;8.73;7.10;;;23.90;56.60;;;;;;5056161;28;20174;-67
2022/06/22 10:15:46;;;;;;;8.63;6.30;;;24.10;55.60;;;;;;5067012;28;20762;-67
2022/06/22 10:18:17;;;;;;;13.38;7.22;;;24.20;57.00;;;;;;5055571;28;20049;-68
2022/06/22 10:21:02;;;;;;;8.00;7.00;;;24.60;58.10;;;;;;5059313;28;20045;-67
2022/06/22 10:24:06;;;;;;;10.98;6.80;;;24.50;55.50;;;;;;5061852;28;20441;-67
2022/06/22 10:26:59;;;;;;;11.57;6.53;;;24.50;52.10;;;;;;5062635;28;20044;-67
2022/06/22 10:30:03;;;;;;;12.75;8.70;;;24.20;54.20;;;;;;5063016;28;20053;-69
2022/06/22 10:32:33;;;;;;;11.85;7.35;;;24.00;55.80;;;;;;5060210;28;20044;-67
2022/06/22 10:35:13;;;;;;;15.32;8.77;;;23.90;57.30;;;;;;5066721;28;20084;-67
2022/06/22 10:38:13;;;;;;;11.13;9.40;;;23.70;57.10;;;;;;5060498;28;20083;-67
2022/06/22 10:47:43;;;;;;;12.27;7.97;;;23.70;55.60;;;;;;5067733;28;20045;-67
2022/06/22 10:50:31;;;;;;;11.07;8.95;;;23.60;59.00;;;;;;5069761;28;20497;-67
2022/06/22 10:53:08;;;;;;;13.10;7.35;;;23.40;58.80;;;;;;5064416;28;20119;-67
2022/06/22 10:55:37;;;;;;;;;;;23.40;58.70;;;;;;5059013;28;20080;-67
2022/06/22 10:58:16;;;;;;;9.60;7.25;;;23.50;59.80;;;;;;5066859;28;19974;-67
2022/06/22 11:01:17;;;;;;;18.17;8.13;;;23.90;58.10;;;;;;5055915;28;20110;-67
2022/06/22 11:03:57;;;;;;;13.43;8.90;;;24.20;55.20;;;;;;5061098;28;20047;-67
2022/06/22 11:06:50;;;;;;;14.13;8.85;;;24.10;57.20;;;;;;5054854;28;20520;-67
2022/06/22 11:09:46;;;;;;;11.25;8.73;;;23.70;58.00;;;;;;5060368;28;20052;-67
2022/06/22 11:12:28;;;;;;;15.25;7.82;;;23.70;58.90;;;;;;5067569;28;20056;-67
2022/06/22 11:15:29;;;;;;;10.95;7.85;;;23.90;62.80;;;;;;5065865;28;20394;-67
2022/06/22 11:18:19;;;;;;;13.35;8.40;;;23.70;60.90;;;;;;5055838;28;20044;-67
2022/06/22 11:21:18;;;;;;;10.13;8.50;;;23.70;58.00;;;;;;5061258;28;20047;-67
2022/06/22 11:24:14;;;;;;;9.68;7.55;;;23.90;57.60;;;;;;5061579;28;20570;-67
2022/06/22 11:33:10;;;;;;;11.18;8.25;;;24.10;61.10;;;;;;5058344;28;20123;-66
2022/06/22 11:36:20;;;;;;;12.25;8.30;;;24.10;60.40;;;;;;5065313;28;20406;-65
2022/06/22 11:39:07;;;;;;;11.77;8.00;;;24.40;59.50;;;;;;5064264;28;20041;-66
2022/06/22 11:41:47;;;;;;;12.32;9.38;;;24.60;60.20;;;;;;5066857;28;20037;-66
2022/06/22 11:47:51;;;;;;;12.18;7.60;;;24.60;58.50;;;;;;5061906;28;20056;-66
2022/06/22 11:50:48;;;;;;;12.48;8.15;;;24.90;58.00;;;;;;5060172;28;20137;-65
2022/06/22 11:54:02;;;;;;;17.27;9.80;;;25.40;56.70;;;;;;5053099;28;20686;-65
2022/06/22 11:56:46;;;;;;;12.57;7.43;;;25.40;53.30;;;;;;5066523;28;20060;-66
2022/06/22 11:59:38;;;;;;;9.63;7.60;;;25.40;56.80;;;;;;5060278;28;20057;-66
2022/06/22 12:02:47;;;;;;;8.07;7.25;;;25.50;57.50;;;;;;5067349;28;20093;-66
2022/06/22 12:05:38;;;;;;;15.02;8.27;;;25.50;57.80;;;;;;5066010;28;20052;-67
2022/06/22 12:08:29;;;;;;;10.82;7.35;;;25.60;54.20;;;;;;5062493;28;20042;-66
2022/06/22 12:11:10;;;;;;;11.40;6.70;;;25.70;54.70;;;;;;5067728;28;20045;-66
2022/06/22 12:15:04;;;;;;;11.50;8.50;;;25.80;55.40;;;;;;5070869;28;20055;-66
2022/06/22 12:16:48;;;;;;;12.50;9.07;;;25.80;55.10;;;;;;5067889;28;20062;-65
2022/06/22 12:19:41;;;;;;;14.32;8.75;;;25.50;57.20;;;;;;5066210;28;20582;-66
2022/06/22 12:22:22;;;;;;;14.00;7.28;;;25.20;58.40;;;;;;5074363;28;20083;-66
2022/06/22 12:25:16;;;;;;;17.13;8.32;;;25.10;57.00;;;;;;5070353;28;20055;-66
2022/06/22 12:27:49;;;;;;;16.95;9.15;;;25.10;57.00;;;;;;5063475;28;20131;-66
2022/06/22 12:30:33;;;;;;;13.02;7.68;;;25.20;56.80;;;;;;5059468;28;20048;-67
2022/06/22 12:33:13;;;;;;;12.00;7.35;;;25.40;57.50;;;;;;5072081;28;20044;-65
2022/06/22 12:35:50;;;;;;;13.93;8.98;;;25.50;55.90;;;;;;5073457;28;20083;-66
2022/06/22 12:38:16;;;;;;;20.60;8.70;;;25.00;57.10;;;;;;5070317;28;20051;-66
2022/06/22 12:40:56;;;;;;;14.30;8.82;;;25.00;57.80;;;;;;5070425;28;20048;-67
2022/06/22 12:43:42;;;;;;;11.43;7.45;;;25.00;56.30;;;;;;5069850;28;20048;-66
2022/06/22 12:46:11;;;;;;;16.05;8.30;;;25.20;57.00;;;;;;5061845;28;20564;-66
2022/06/22 12:48:56;;;;;;;16.42;8.80;;;25.20;57.80;;;;;;5069910;28;20052;-67
2022/06/22 12:52:02;;;;;;;15.60;7.88;;;25.10;56.70;;;;;;5069882;28;20045;-66
2022/06/22 12:54:52;;;;;;;12.27;8.50;;;25.30;55.10;;;;;;5057563;28;20131;-66
2022/06/22 12:57:30;;;;;;;12.98;7.15;;;25.40;54.70;;;;;;5066529;28;20618;-67
2022/06/22 13:00:03;;;;;;;11.40;8.55;;;25.50;55.70;;;;;;5062236;28;20413;-66
2022/06/22 13:02:32;;;;;;;13.13;7.90;;;25.60;55.10;;;;;;5069573;28;20147;-66
2022/06/22 13:05:05;;;;;;;10.30;8.15;;;25.50;55.90;;;;;;5069599;28;20067;-67
2022/06/22 13:07:36;;;;;;;16.27;8.90;;;25.40;58.30;;;;;;5068874;28;20052;-66
2022/06/22 13:10:02;;;;;;;10.45;8.77;;;25.30;57.00;;;;;;5069478;28;20056;-67
2022/06/22 13:12:44;;;;;;;10.77;8.68;;;25.30;56.10;;;;;;5064770;28;20078;-67
2022/06/22 13:15:22;;;;;;;14.90;8.90;;;25.60;55.40;;;;;;5068855;28;20163;-66
2022/06/22 13:18:14;;;;;;;13.00;8.98;;;25.70;54.50;;;;;;5068820;28;20378;-67
2022/06/22 13:20:54;;;;;;;10.73;9.13;;;25.60;55.30;;;;;;5070111;28;20036;-66
2022/06/22 13:23:33;;;;;;;13.13;8.90;;;25.50;54.80;;;;;;5070945;28;20045;-67
2022/06/22 13:26:36;;;;;;;10.88;9.35;;;25.70;55.20;;;;;;5068452;28;20075;-66
2022/06/22 13:29:19;;;;;;;13.10;8.32;;;25.80;53.90;;;;;;5069448;28;20076;-67
2022/06/22 13:31:48;;;;;;;9.60;7.70;;;25.90;50.90;;;;;;5072239;28;20048;-66
2022/06/22 13:34:22;;;;;;;11.32;8.07;;;25.90;53.40;;;;;;5065857;28;20123;-67
2022/06/22 13:37:15;;;;;;;11.25;6.65;;;25.70;54.40;;;;;;5068432;28;20592;-66
2022/06/22 13:40:11;;;;;;;17.20;8.40;;;25.60;53.30;;;;;;5069922;28;20047;-66
2022/06/22 13:42:55;;;;;;;10.93;8.07;;;25.60;53.30;;;;;;5071254;28;20123;-67
2022/06/22 13:45:39;;;;;;;11.48;8.23;;;25.30;54.20;;;;;;5064930;28;20043;-66
2022/06/22 13:48:34;;;;;;;12.20;7.57;;;25.10;55.40;;;;;;5061398;28;20089;-66
2022/06/22 13:53:33;;;;;;;11.15;7.63;;;25.00;52.00;;;;;;5073635;28;20514;-66
2022/06/22 13:56:40;;;;;;;13.43;8.30;;;25.00;51.40;;;;;;5068773;28;20052;-66
2022/06/22 13:59:17;;;;;;;12.82;7.13;;;25.10;49.00;;;;;;5066332;28;20041;-66
2022/06/22 14:01:50;;;;;;;38.20;7.88;;;25.00;51.80;;;;;;5072082;28;20050;-66
2022/06/22 14:04:23;;;;;;;13.32;7.82;;;25.10;52.10;;;;;;5078580;28;20041;-66
2022/06/22 14:06:54;;;;;;;19.30;11.80;;;25.20;52.90;;;;;;5064588;28;20056;-66
2022/06/22 14:09:39;;;;;;;14.55;10.43;;;25.50;52.70;;;;;;5073188;28;20089;-66
2022/06/22 14:12:20;;;;;;;12.07;9.23;;;25.40;53.20;;;;;;5078184;28;20105;-66